createdAt,value
2019-04-26T00:02:02.609Z,11.13
2019-04-26T00:04:28.610Z,11.80
2019-04-26T00:06:54.805Z,11.63
2019-04-26T00:09:22.694Z,11.47
2019-04-26T00:11:59.151Z,11.27
2019-04-26T00:14:35.376Z,10.67
2019-04-26T00:17:03.074Z,11.70
2019-04-26T00:19:29.181Z,11.13
2019-04-26T00:21:55.281Z,12.50
2019-04-26T00:24:21.550Z,11.20
2019-04-26T00:26:47.287Z,11.00
2019-04-26T00:29:13.080Z,11.00
2019-04-26T00:31:38.865Z,11.90
2019-04-26T00:34:04.679Z,11.67
2019-04-26T00:36:30.475Z,12.03
2019-04-26T00:38:56.265Z,11.70
2019-04-26T00:41:22.702Z,12.03
2019-04-26T00:43:48.639Z,11.80
2019-04-26T00:46:15.134Z,12.70
2019-04-26T00:48:41.126Z,11.70
2019-04-26T00:51:07.425Z,13.37
2019-04-26T00:53:33.522Z,12.23
2019-04-26T00:56:00.001Z,13.97
2019-04-26T00:58:26.099Z,13.17
2019-04-26T01:00:51.879Z,13.23
2019-04-26T01:03:18.574Z,13.13
2019-04-26T01:05:44.465Z,13.27
2019-04-26T01:08:10.258Z,12.23
2019-04-26T01:10:36.051Z,13.20
2019-04-26T01:13:01.857Z,13.07
2019-04-26T01:15:27.632Z,12.80
2019-04-26T01:17:53.419Z,12.30
2019-04-26T01:20:20.690Z,12.43
2019-04-26T01:22:49.300Z,13.23
2019-04-26T01:25:34.044Z,11.97
2019-04-26T01:28:01.149Z,12.33
2019-04-26T01:30:28.831Z,11.87
2019-04-26T01:32:54.715Z,12.00
2019-04-26T01:35:20.598Z,12.40
2019-04-26T01:37:47.276Z,11.87
2019-04-26T01:40:15.067Z,10.80
2019-04-26T01:42:44.648Z,11.27
2019-04-26T01:45:20.265Z,12.30
2019-04-26T01:47:48.326Z,10.77
2019-04-26T01:50:14.315Z,11.27
2019-04-26T01:52:41.682Z,11.10
2019-04-26T01:55:08.473Z,10.67
2019-04-26T01:57:34.452Z,11.77
2019-04-26T02:00:02.141Z,11.07
2019-04-26T02:02:32.590Z,11.50
2019-04-26T02:05:00.283Z,10.63
2019-04-26T02:07:38.339Z,11.23
2019-04-26T02:10:09.507Z,11.93
2019-04-26T02:12:35.885Z,11.87
2019-04-26T02:15:03.076Z,12.70
2019-04-26T02:17:29.346Z,12.27
2019-04-26T02:19:55.138Z,11.87
2019-04-26T02:22:25.900Z,12.80
2019-04-26T02:24:52.296Z,13.47
2019-04-26T02:27:22.759Z,11.50
2019-04-26T02:29:48.556Z,12.43
2019-04-26T02:32:14.437Z,13.20
2019-04-26T02:34:40.226Z,12.57
2019-04-26T02:37:08.713Z,12.67
2019-04-26T02:39:37.797Z,13.10
2019-04-26T02:42:07.481Z,13.23
2019-04-26T02:44:38.440Z,13.47
2019-04-26T02:47:34.150Z,13.73
2019-04-26T02:50:05.152Z,13.70
2019-04-26T02:52:55.342Z,14.13
2019-04-26T02:55:38.847Z,14.17
2019-04-26T02:58:01.856Z,14.00
2019-04-26T03:00:28.127Z,14.97
2019-04-26T03:02:57.825Z,15.37
2019-04-26T03:05:24.420Z,14.20
2019-04-26T03:07:57.019Z,14.73
2019-04-26T03:10:26.600Z,14.53
2019-04-26T03:12:53.783Z,15.20
2019-04-26T03:15:34.154Z,15.87
2019-04-26T03:18:21.976Z,15.50
2019-04-26T03:20:51.681Z,15.63
2019-04-26T03:23:21.374Z,15.00
2019-04-26T03:26:22.552Z,15.53
2019-04-26T03:29:11.412Z,14.93
2019-04-26T03:31:53.945Z,15.83
2019-04-26T03:34:34.445Z,16.13
2019-04-26T03:37:22.108Z,16.27
2019-04-26T03:40:14.750Z,15.10
2019-04-26T03:43:01.993Z,16.13
2019-04-26T03:45:58.602Z,15.37
2019-04-26T03:48:37.941Z,16.73
2019-04-26T03:51:08.456Z,16.90
2019-04-26T03:53:47.139Z,17.77
2019-04-26T03:56:18.547Z,17.33
2019-04-26T03:59:16.803Z,17.80
2019-04-26T04:02:05.456Z,16.73
2019-04-26T04:04:41.064Z,18.67
2019-04-26T04:07:09.870Z,18.50
2019-04-26T04:09:41.045Z,19.03
2019-04-26T04:12:14.026Z,18.70
2019-04-26T04:14:52.478Z,18.87
2019-04-26T04:17:45.371Z,18.47
2019-04-26T04:20:33.708Z,18.97
2019-04-26T04:23:22.540Z,18.90
2019-04-26T04:25:49.848Z,19.40
2019-04-26T04:28:35.354Z,19.73
2019-04-26T04:31:10.667Z,20.73
2019-04-26T04:34:08.782Z,20.07
2019-04-26T04:36:42.348Z,20.40
2019-04-26T04:39:13.373Z,20.83
2019-04-26T04:41:56.363Z,20.50
2019-04-26T04:44:59.147Z,22.57
2019-04-26T04:47:34.742Z,22.23
2019-04-26T04:50:11.486Z,21.93
2019-04-26T04:53:06.901Z,24.03
2019-04-26T04:55:49.968Z,21.47
2019-04-26T04:58:22.201Z,23.60
2019-04-26T05:01:14.340Z,22.27
2019-04-26T05:03:55.557Z,21.47
2019-04-26T05:06:33.078Z,23.20
2019-04-26T05:09:11.163Z,23.27
2019-04-26T05:11:58.964Z,23.13
2019-04-26T05:14:28.559Z,23.03
2019-04-26T05:17:26.973Z,23.17
2019-04-26T05:20:02.603Z,24.47
2019-04-26T05:23:03.477Z,24.33
2019-04-26T05:25:50.183Z,23.93
2019-04-26T05:28:40.078Z,24.50
2019-04-26T05:31:17.620Z,24.17
2019-04-26T05:33:47.787Z,24.20
2019-04-26T05:36:30.540Z,23.67
2019-04-26T05:39:05.954Z,24.90
2019-04-26T05:41:58.197Z,24.03
2019-04-26T05:45:08.382Z,25.37
2019-04-26T05:48:08.226Z,23.23
2019-04-26T05:50:53.715Z,24.57
2019-04-26T05:53:44.635Z,24.97
2019-04-26T05:56:21.682Z,24.00
2019-04-26T05:59:09.614Z,23.80
2019-04-26T06:01:59.341Z,23.03
2019-04-26T06:05:07.250Z,23.80
2019-04-26T06:07:52.013Z,24.70
2019-04-26T06:10:21.399Z,25.07
2019-04-26T06:13:02.955Z,24.80
2019-04-26T06:15:40.451Z,24.00
2019-04-26T06:18:14.461Z,24.97
2019-04-26T06:20:43.566Z,24.47
2019-04-26T06:23:12.847Z,23.67
2019-04-26T06:26:05.198Z,24.00
2019-04-26T06:28:37.823Z,23.77
2019-04-26T06:31:23.857Z,23.03
2019-04-26T06:34:05.553Z,23.17
2019-04-26T06:36:36.547Z,23.47
2019-04-26T06:39:28.467Z,24.67
2019-04-26T06:42:09.642Z,23.20
2019-04-26T06:45:02.881Z,24.13
2019-04-26T06:47:46.391Z,24.03
2019-04-26T06:50:35.491Z,24.17
2019-04-26T06:53:20.193Z,23.60
2019-04-26T06:55:54.701Z,22.70
2019-04-26T06:58:35.748Z,24.13
2019-04-26T07:01:16.816Z,23.33
2019-04-26T07:03:55.187Z,23.00
2019-04-26T07:06:54.564Z,23.97
2019-04-26T07:09:26.319Z,23.63
2019-04-26T07:12:28.168Z,23.50
2019-04-26T07:15:12.449Z,23.80
2019-04-26T07:17:50.620Z,24.70
2019-04-26T07:20:34.478Z,24.13
2019-04-26T07:23:27.107Z,25.40
2019-04-26T07:26:14.282Z,24.83
2019-04-26T07:29:12.195Z,24.67
2019-04-26T07:32:07.379Z,25.53
2019-04-26T07:34:44.455Z,23.50
2019-04-26T07:37:28.530Z,23.20
2019-04-26T07:40:12.158Z,25.47
2019-04-26T07:43:20.078Z,23.20
2019-04-26T07:46:18.255Z,22.97
2019-04-26T07:49:08.083Z,22.47
2019-04-26T07:52:10.819Z,23.13
2019-04-26T07:54:52.097Z,23.47
2019-04-26T07:57:38.572Z,23.10
2019-04-26T08:00:13.021Z,24.43
2019-04-26T08:03:02.216Z,24.87
2019-04-26T08:05:45.042Z,22.30
2019-04-26T08:08:15.002Z,23.53
2019-04-26T08:10:44.629Z,22.63
2019-04-26T08:13:15.253Z,23.50
2019-04-26T08:15:54.106Z,21.87
2019-04-26T08:18:25.595Z,20.93
2019-04-26T08:20:53.612Z,23.30
2019-04-26T08:23:38.622Z,21.43
2019-04-26T08:25:54.596Z,19.97
2019-04-26T08:28:21.171Z,22.60
2019-04-26T08:30:49.057Z,21.70
2019-04-26T08:33:19.336Z,20.90
2019-04-26T08:35:48.986Z,20.97
2019-04-26T08:38:21.977Z,18.23
2019-04-26T08:40:42.289Z,21.43
2019-04-26T08:43:10.945Z,19.97
2019-04-26T08:46:03.210Z,19.43
2019-04-26T08:48:31.503Z,18.33
2019-04-26T08:51:00.994Z,19.77
2019-04-26T08:53:27.773Z,18.30
2019-04-26T08:55:53.966Z,18.77
2019-04-26T08:58:21.647Z,18.97
2019-04-26T09:00:50.848Z,18.97
2019-04-26T09:03:20.231Z,19.03
2019-04-26T09:06:03.599Z,17.60
2019-04-26T09:08:32.477Z,16.47
2019-04-26T09:10:59.861Z,15.93
2019-04-26T09:13:29.440Z,16.47
2019-04-26T09:16:06.792Z,14.77
2019-04-26T09:18:42.433Z,13.50
2019-04-26T09:21:00.389Z,12.77
2019-04-26T09:23:39.582Z,12.43
2019-04-26T09:26:03.747Z,11.90
2019-04-26T09:28:37.295Z,12.03
2019-04-26T09:31:10.908Z,11.50
2019-04-26T09:33:44.463Z,11.43
2019-04-26T09:36:10.452Z,10.27
2019-04-26T09:38:36.228Z,10.13
2019-04-26T09:41:02.518Z,9.57
2019-04-26T09:43:39.100Z,9.60
2019-04-26T09:46:22.934Z,9.30
2019-04-26T09:49:03.066Z,8.97
2019-04-26T09:51:30.098Z,8.00
2019-04-26T09:53:55.869Z,7.07
2019-04-26T09:56:21.664Z,6.10
2019-04-26T09:58:47.442Z,5.83
2019-04-26T10:01:13.327Z,5.53
2019-04-26T10:03:39.100Z,5.73
2019-04-26T10:06:04.892Z,5.43
2019-04-26T10:08:30.665Z,5.00
2019-04-26T10:10:56.455Z,4.47
2019-04-26T10:13:29.922Z,4.90
2019-04-26T10:15:58.059Z,4.07
2019-04-26T10:18:25.974Z,4.00
2019-04-26T10:20:51.902Z,3.70
2019-04-26T10:23:17.683Z,3.13
2019-04-26T10:25:47.342Z,3.37
2019-04-26T10:28:11.726Z,3.43
2019-04-26T10:30:42.408Z,2.97
2019-04-26T10:33:06.727Z,3.30
2019-04-26T10:35:32.500Z,2.97
2019-04-26T10:37:58.288Z,3.37
2019-04-26T10:40:34.981Z,3.60
2019-04-26T10:42:51.775Z,3.70
2019-04-26T10:45:19.050Z,3.10
2019-04-26T10:47:44.947Z,3.20
2019-04-26T10:50:11.019Z,3.33
2019-04-26T10:52:54.392Z,3.40
2019-04-26T10:55:22.359Z,3.90
2019-04-26T10:57:51.154Z,4.27
2019-04-26T11:00:24.679Z,3.90
2019-04-26T11:02:50.481Z,3.77
2019-04-26T11:05:18.533Z,3.93
2019-04-26T11:07:43.943Z,4.13
2019-04-26T11:10:09.921Z,4.20
2019-04-26T11:12:35.715Z,3.73
2019-04-26T11:15:01.592Z,4.13
2019-04-26T11:17:27.392Z,4.20
2019-04-26T11:19:53.160Z,3.97
2019-04-26T11:22:28.579Z,3.23
2019-04-26T11:24:50.074Z,3.83
2019-04-26T11:27:14.330Z,3.57
2019-04-26T11:29:40.126Z,3.20
2019-04-26T11:32:05.904Z,3.53
2019-04-26T11:34:31.726Z,2.90
2019-04-26T11:36:57.554Z,2.93
2019-04-26T11:39:23.386Z,2.90
2019-04-26T11:41:49.174Z,2.83
2019-04-26T11:44:14.993Z,2.80
2019-04-26T11:46:44.935Z,3.00
2019-04-26T11:49:08.503Z,3.47
2019-04-26T11:51:34.251Z,2.90
2019-04-26T11:54:00.043Z,2.77
2019-04-26T11:56:25.833Z,2.70
2019-04-26T11:58:52.497Z,2.90
2019-04-26T12:01:21.315Z,2.70
2019-04-26T12:03:51.546Z,2.73
2019-04-26T12:06:21.291Z,3.20
2019-04-26T12:08:50.936Z,3.00
2019-04-26T12:11:18.604Z,3.23
2019-04-26T12:13:44.423Z,3.50
2019-04-26T12:16:10.223Z,3.40
2019-04-26T12:18:36.014Z,3.30
2019-04-26T12:21:02.145Z,3.00
2019-04-26T12:23:28.021Z,2.80
2019-04-26T12:25:53.840Z,2.50
2019-04-26T12:28:19.627Z,2.57
2019-04-26T12:30:45.422Z,2.80
2019-04-26T12:33:11.245Z,2.60
2019-04-26T12:35:36.994Z,3.00
2019-04-26T12:38:02.771Z,2.80
2019-04-26T12:40:28.565Z,2.70
2019-04-26T12:42:54.353Z,2.57
2019-04-26T12:45:39.951Z,2.50
2019-04-26T12:48:16.825Z,2.50
2019-04-26T12:50:42.923Z,3.00
2019-04-26T12:53:08.702Z,2.73
2019-04-26T12:55:34.489Z,2.83
2019-04-26T12:58:00.273Z,2.60
2019-04-26T13:00:27.970Z,2.73
2019-04-26T13:02:54.308Z,2.63
2019-04-26T13:05:21.548Z,3.00
2019-04-26T13:07:49.237Z,2.70
2019-04-26T13:10:16.935Z,2.57
2019-04-26T13:12:53.443Z,2.30
2019-04-26T13:15:36.546Z,2.53
2019-04-26T13:18:02.337Z,2.50
2019-04-26T13:20:28.771Z,2.90
2019-04-26T13:22:55.998Z,2.60
2019-04-26T13:25:26.506Z,2.70
2019-04-26T13:27:49.504Z,2.83
2019-04-26T13:30:15.283Z,2.47
2019-04-26T13:32:41.079Z,2.43
2019-04-26T13:35:07.277Z,2.70
2019-04-26T13:37:35.710Z,2.67
2019-04-26T13:40:02.739Z,3.00
2019-04-26T13:42:28.537Z,2.87
2019-04-26T13:45:02.191Z,3.03
2019-04-26T13:47:38.571Z,2.60
2019-04-26T13:50:07.356Z,2.97
2019-04-26T13:52:33.157Z,3.00
2019-04-26T13:54:58.940Z,3.17
2019-04-26T13:57:24.720Z,3.30
2019-04-26T13:59:50.492Z,3.50
2019-04-26T14:02:16.488Z,3.70
2019-04-26T14:04:42.714Z,3.00
2019-04-26T14:07:08.568Z,2.73
2019-04-26T14:09:34.347Z,2.73
2019-04-26T14:12:03.352Z,2.70
2019-04-26T14:14:30.202Z,2.63
2019-04-26T14:16:55.727Z,3.30
2019-04-26T14:19:22.798Z,3.43
2019-04-26T14:21:48.611Z,2.77
2019-04-26T14:24:19.639Z,3.20
2019-04-26T14:26:48.663Z,3.23
2019-04-26T14:29:14.459Z,2.90
2019-04-26T14:31:40.351Z,2.70
2019-04-26T14:34:07.098Z,2.90
2019-04-26T14:36:32.941Z,3.27
2019-04-26T14:39:05.581Z,3.20
2019-04-26T14:41:26.595Z,3.83
2019-04-26T14:43:56.671Z,3.77
2019-04-26T14:46:22.827Z,3.23
2019-04-26T14:49:00.926Z,3.90
2019-04-26T14:51:16.888Z,3.93
2019-04-26T14:53:43.266Z,3.93
2019-04-26T14:56:09.042Z,4.80
2019-04-26T14:58:34.832Z,4.50
2019-04-26T15:01:05.065Z,4.50
2019-04-26T15:03:34.067Z,5.03
2019-04-26T15:06:20.535Z,5.03
2019-04-26T15:08:48.673Z,5.33
2019-04-26T15:11:13.519Z,5.47
2019-04-26T15:13:40.537Z,6.07
2019-04-26T15:16:10.338Z,5.70
2019-04-26T15:18:37.049Z,6.33
2019-04-26T15:21:04.229Z,6.50
2019-04-26T15:23:30.064Z,6.93
2019-04-26T15:25:58.402Z,6.40
2019-04-26T15:28:23.576Z,6.53
2019-04-26T15:30:49.358Z,6.33
2019-04-26T15:33:15.140Z,6.70
2019-04-26T15:35:42.173Z,6.37
2019-04-26T15:38:08.005Z,6.27
2019-04-26T15:40:38.550Z,6.63
2019-04-26T15:43:24.044Z,6.33
2019-04-26T15:46:08.098Z,6.93
2019-04-26T15:48:38.554Z,6.27
2019-04-26T15:51:04.431Z,5.37
2019-04-26T15:53:30.219Z,5.33
2019-04-26T15:55:56.007Z,5.57
2019-04-26T15:58:21.784Z,5.50
2019-04-26T16:00:47.580Z,6.13
2019-04-26T16:03:13.358Z,6.03
2019-04-26T16:05:39.464Z,5.97
2019-04-26T16:08:05.236Z,5.87
2019-04-26T16:10:37.078Z,6.70
2019-04-26T16:13:01.260Z,7.53
2019-04-26T16:15:26.401Z,7.40
2019-04-26T16:17:52.251Z,8.40
2019-04-26T16:20:18.035Z,7.70
2019-04-26T16:22:43.814Z,7.97
2019-04-26T16:25:09.616Z,7.90
2019-04-26T16:27:35.410Z,8.37
2019-04-26T16:30:04.830Z,8.20
2019-04-26T16:32:38.019Z,8.00
2019-04-26T16:35:05.200Z,6.83
2019-04-26T16:37:33.102Z,6.17
2019-04-26T16:39:58.694Z,6.30
2019-04-26T16:42:24.481Z,6.40
2019-04-26T16:44:50.255Z,7.07
2019-04-26T16:47:16.046Z,7.40
2019-04-26T16:49:44.161Z,6.93
2019-04-26T16:52:09.531Z,6.77
2019-04-26T16:54:35.312Z,6.43
2019-04-26T16:57:06.928Z,5.60
2019-04-26T16:59:28.778Z,5.90
2019-04-26T17:01:54.572Z,6.10
2019-04-26T17:04:28.762Z,5.57
2019-04-26T17:06:48.141Z,5.97
2019-04-26T17:09:14.478Z,6.47
2019-04-26T17:11:41.405Z,6.20
2019-04-26T17:14:10.135Z,6.00
2019-04-26T17:16:38.074Z,6.30
2019-04-26T17:19:03.208Z,5.67
2019-04-26T17:21:32.822Z,5.77
2019-04-26T17:24:16.970Z,5.37
2019-04-26T17:26:44.683Z,5.27
2019-04-26T17:29:10.462Z,5.60
2019-04-26T17:31:36.259Z,5.10
2019-04-26T17:34:03.522Z,5.00
2019-04-26T17:36:29.743Z,4.90
2019-04-26T17:38:55.535Z,5.07
2019-04-26T17:41:21.345Z,4.90
2019-04-26T17:43:50.614Z,4.63
2019-04-26T17:46:18.300Z,4.40
2019-04-26T17:48:44.818Z,4.57
2019-04-26T17:51:18.442Z,5.27
2019-04-26T17:53:38.000Z,4.80
2019-04-26T17:56:03.921Z,4.90
2019-04-26T17:58:32.456Z,5.30
2019-04-26T18:01:02.428Z,5.03
2019-04-26T18:03:25.253Z,5.80
2019-04-26T18:05:57.229Z,5.43
2019-04-26T18:08:36.211Z,5.83
2019-04-26T18:10:46.542Z,6.37
2019-04-26T18:13:16.229Z,6.20
2019-04-26T18:15:44.502Z,6.30
2019-04-26T18:18:26.052Z,6.73
2019-04-26T18:21:05.666Z,7.60
2019-04-26T18:23:31.470Z,7.83
2019-04-26T18:25:57.250Z,8.70
2019-04-26T18:28:23.069Z,9.13
2019-04-26T18:30:48.843Z,9.37
2019-04-26T18:33:17.485Z,10.47
2019-04-26T18:35:45.116Z,10.37
2019-04-26T18:38:12.606Z,13.37
2019-04-26T18:40:58.927Z,14.63
2019-04-26T18:43:05.383Z,15.53
2019-04-26T18:45:31.178Z,16.70
2019-04-26T18:48:01.483Z,18.90
2019-04-26T18:50:28.452Z,19.80
2019-04-26T18:53:03.370Z,23.13
2019-04-26T18:55:30.991Z,23.53
2019-04-26T18:58:01.450Z,25.90
2019-04-26T19:00:28.931Z,26.57
2019-04-26T19:02:55.414Z,27.13
2019-04-26T19:05:26.905Z,27.30
2019-04-26T19:07:50.219Z,28.70
2019-04-26T19:10:16.683Z,30.30
2019-04-26T19:12:43.987Z,31.07
2019-04-26T19:15:23.713Z,32.63
2019-04-26T19:18:07.772Z,32.60
2019-04-26T19:20:38.293Z,32.43
2019-04-26T19:23:06.195Z,33.50
2019-04-26T19:25:35.648Z,33.13
2019-04-26T19:28:04.447Z,35.20
2019-04-26T19:30:27.530Z,34.73
2019-04-26T19:32:53.901Z,37.03
2019-04-26T19:35:21.780Z,38.47
2019-04-26T19:37:47.660Z,37.33
2019-04-26T19:40:13.448Z,37.70
2019-04-26T19:42:39.222Z,39.83
2019-04-26T19:45:13.556Z,39.10
2019-04-26T19:47:39.495Z,39.20
2019-04-26T19:50:09.641Z,39.30
2019-04-26T19:52:39.551Z,41.70
2019-04-26T19:55:13.756Z,41.10
2019-04-26T19:57:42.610Z,40.07
2019-04-26T20:00:09.395Z,40.47
2019-04-26T20:02:38.937Z,41.37
2019-04-26T20:05:06.662Z,41.87
2019-04-26T20:07:33.162Z,42.17
2019-04-26T20:10:02.334Z,41.67
2019-04-26T20:12:29.526Z,41.80
2019-04-26T20:14:58.289Z,41.83
2019-04-26T20:17:23.476Z,43.53
2019-04-26T20:19:53.991Z,43.03
2019-04-26T20:22:22.172Z,41.87
2019-04-26T20:24:48.542Z,43.07
2019-04-26T20:27:14.102Z,42.87
2019-04-26T20:29:46.736Z,40.57
2019-04-26T20:32:24.767Z,40.80
2019-04-26T20:34:52.511Z,40.10
2019-04-26T20:37:22.864Z,39.97
2019-04-26T20:39:46.010Z,39.70
2019-04-26T20:42:12.125Z,39.47
2019-04-26T20:44:50.461Z,39.70
2019-04-26T20:47:07.647Z,38.17
2019-04-26T20:49:33.466Z,38.53
2019-04-26T20:51:59.361Z,38.80
2019-04-26T20:54:25.144Z,38.87
2019-04-26T20:56:55.398Z,39.40
2019-04-26T20:59:20.316Z,40.60
2019-04-26T21:01:46.740Z,38.90
2019-04-26T21:04:33.886Z,39.93
2019-04-26T21:06:40.408Z,40.87
2019-04-26T21:09:08.150Z,38.40
2019-04-26T21:11:37.198Z,38.37
2019-04-26T21:14:07.432Z,37.97
2019-04-26T21:16:29.352Z,36.70
2019-04-26T21:18:55.138Z,34.53
2019-04-26T21:21:21.744Z,35.30
2019-04-26T21:23:49.223Z,31.73
2019-04-26T21:26:33.080Z,33.20
2019-04-26T21:29:00.766Z,33.33
2019-04-26T21:31:36.288Z,32.30
2019-04-26T21:34:03.866Z,32.63
2019-04-26T21:36:40.813Z,32.40
2019-04-26T21:39:11.385Z,32.10
2019-04-26T21:41:40.436Z,31.83
2019-04-26T21:44:07.550Z,31.33
2019-04-26T21:46:34.457Z,32.67
2019-04-26T21:49:00.238Z,33.63
2019-04-26T21:51:26.045Z,35.47
2019-04-26T21:53:52.996Z,35.00
2019-04-26T21:56:18.938Z,33.10
2019-04-26T21:58:46.063Z,34.27
2019-04-26T22:01:16.709Z,35.63
2019-04-26T22:03:47.373Z,40.20
2019-04-26T22:06:09.297Z,42.30
2019-04-26T22:08:39.604Z,38.60
2019-04-26T22:11:05.399Z,39.07
2019-04-26T22:13:41.561Z,39.33
2019-04-26T22:16:37.206Z,43.23
2019-04-26T22:18:56.960Z,37.33
2019-04-26T22:21:28.830Z,43.40
2019-04-26T22:23:56.072Z,42.67
2019-04-26T22:26:23.583Z,48.90
2019-04-26T22:28:49.775Z,46.63
2019-04-26T22:31:15.558Z,42.20
2019-04-26T22:33:42.860Z,43.30
2019-04-26T22:36:09.050Z,46.47
2019-04-26T22:38:34.869Z,49.00
2019-04-26T22:41:00.748Z,46.03
2019-04-26T22:43:40.080Z,49.07
2019-04-26T22:46:18.575Z,44.20
2019-04-26T22:48:54.654Z,43.60
2019-04-26T22:51:16.393Z,46.57
2019-04-26T22:53:43.379Z,38.80
2019-04-26T22:56:09.279Z,41.17
2019-04-26T22:58:35.101Z,40.80
2019-04-26T23:01:03.528Z,36.47
2019-04-26T23:03:28.618Z,37.20
2019-04-26T23:05:55.068Z,36.33
2019-04-26T23:08:21.495Z,39.60
2019-04-26T23:10:49.190Z,36.67
2019-04-26T23:13:16.888Z,36.13
2019-04-26T23:15:53.559Z,36.50
2019-04-26T23:18:21.605Z,38.07
2019-04-26T23:20:57.801Z,37.20
2019-04-26T23:23:23.766Z,36.23
2019-04-26T23:25:49.543Z,37.30
2019-04-26T23:28:15.337Z,37.70
2019-04-26T23:30:42.526Z,38.73
2019-04-26T23:33:09.010Z,38.63
2019-04-26T23:35:37.513Z,44.20
2019-04-26T23:38:05.212Z,46.73
2019-04-26T23:40:30.415Z,48.63
2019-04-26T23:42:56.194Z,41.67
2019-04-26T23:45:23.118Z,45.03
2019-04-26T23:47:48.963Z,40.30
2019-04-26T23:50:14.774Z,40.90
2019-04-26T23:52:40.549Z,42.53
2019-04-26T23:55:08.797Z,45.37
2019-04-26T23:57:36.213Z,52.50
